createdAt,value
2023-05-21T00:01:37.805Z,18.55
2023-05-21T00:04:06.475Z,22.40
2023-05-21T00:06:36.183Z,19.85
2023-05-21T00:09:06.802Z,15.20
2023-05-21T00:11:33.928Z,21.85
2023-05-21T00:14:00.943Z,16.20
2023-05-21T00:16:28.065Z,17.23
2023-05-21T00:18:55.442Z,13.82
2023-05-21T00:21:22.930Z,16.65
2023-05-21T00:23:50.447Z,14.85
2023-05-21T00:26:17.543Z,15.65
2023-05-21T00:28:44.404Z,14.82
2023-05-21T00:31:11.474Z,21.20
2023-05-21T00:33:38.464Z,21.27
2023-05-21T00:36:06.332Z,20.77
2023-05-21T00:38:33.448Z,16.30
2023-05-21T00:41:03.134Z,17.23
2023-05-21T00:43:30.161Z,19.02
2023-05-21T00:45:59.391Z,27.42
2023-05-21T00:48:26.464Z,21.20
2023-05-21T00:50:53.767Z,24.00
2023-05-21T00:53:39.904Z,22.50
2023-05-21T00:56:07.816Z,21.60
2023-05-21T00:58:35.984Z,20.55
2023-05-21T01:03:38.851Z,19.58
2023-05-21T01:06:07.044Z,17.45
2023-05-21T01:08:36.403Z,24.60
2023-05-21T01:11:05.895Z,19.10
2023-05-21T01:13:34.876Z,23.75
2023-05-21T01:16:03.171Z,21.00
2023-05-21T01:18:30.251Z,20.38
2023-05-21T01:20:57.453Z,19.92
2023-05-21T01:23:24.422Z,21.33
2023-05-21T01:25:51.492Z,25.45
2023-05-21T01:28:18.356Z,19.73
2023-05-21T01:30:45.284Z,17.48
2023-05-21T01:33:39.290Z,23.48
2023-05-21T01:36:16.177Z,18.75
2023-05-21T01:39:17.569Z,20.17
2023-05-21T01:41:47.964Z,18.67
2023-05-21T01:44:16.968Z,18.25
2023-05-21T01:46:44.008Z,16.77
2023-05-21T01:49:11.869Z,17.23
2023-05-21T01:51:39.342Z,21.20
2023-05-21T01:54:06.421Z,16.45
2023-05-21T01:56:34.085Z,21.67
2023-05-21T01:59:01.061Z,19.45
2023-05-21T02:01:30.437Z,15.60
2023-05-21T02:03:58.342Z,18.15
2023-05-21T02:06:25.542Z,21.50
2023-05-21T02:08:52.615Z,19.02
2023-05-21T02:11:20.948Z,19.70
2023-05-21T02:13:47.819Z,17.27
2023-05-21T02:16:16.140Z,20.58
2023-05-21T02:18:46.609Z,22.75
2023-05-21T02:21:13.610Z,19.20
2023-05-21T02:23:41.926Z,23.90
2023-05-21T02:26:08.928Z,18.02
2023-05-21T02:28:38.628Z,21.40
2023-05-21T02:31:05.916Z,17.73
2023-05-21T02:33:32.922Z,19.73
2023-05-21T02:35:59.799Z,16.00
2023-05-21T02:38:26.827Z,15.75
2023-05-21T02:40:53.877Z,15.02
2023-05-21T02:43:21.212Z,14.75
2023-05-21T02:45:48.225Z,14.13
2023-05-21T02:48:15.332Z,15.18
2023-05-21T02:50:42.362Z,14.65
2023-05-21T02:53:09.346Z,14.98
2023-05-21T02:55:36.565Z,13.63
2023-05-21T02:58:03.581Z,19.30
2023-05-21T03:00:31.170Z,16.35
2023-05-21T03:02:58.212Z,16.80
2023-05-21T03:05:27.885Z,15.55
2023-05-21T03:07:54.812Z,13.02
2023-05-21T03:10:21.909Z,15.32
2023-05-21T03:12:48.968Z,12.93
2023-05-21T03:15:16.541Z,13.43
2023-05-21T03:17:44.829Z,12.80
2023-05-21T03:20:18.898Z,12.05
2023-05-21T03:22:46.649Z,15.18
2023-05-21T03:25:13.796Z,15.75
2023-05-21T03:27:41.018Z,13.25
2023-05-21T03:30:08.357Z,14.43
2023-05-21T03:32:38.111Z,14.35
2023-05-21T03:35:05.611Z,13.35
2023-05-21T03:37:32.438Z,14.68
2023-05-21T03:39:59.268Z,18.95
2023-05-21T03:42:26.412Z,16.35
2023-05-21T03:44:53.462Z,19.83
2023-05-21T03:47:20.635Z,15.38
2023-05-21T03:49:47.725Z,18.05
2023-05-21T03:52:14.736Z,13.95
2023-05-21T03:54:41.630Z,16.15
2023-05-21T03:57:08.669Z,16.08
2023-05-21T03:59:35.530Z,14.77
2023-05-21T04:02:02.822Z,15.13
2023-05-21T04:04:29.928Z,14.50
2023-05-21T04:06:56.819Z,13.18
2023-05-21T04:09:23.807Z,16.33
2023-05-21T04:11:50.840Z,14.40
2023-05-21T04:14:17.660Z,13.80
2023-05-21T04:16:44.517Z,15.30
2023-05-21T04:19:11.482Z,15.70
2023-05-21T04:21:38.378Z,17.77
2023-05-21T04:24:05.277Z,16.83
2023-05-21T04:26:36.337Z,22.40
2023-05-21T04:29:03.946Z,19.45
2023-05-21T04:31:32.668Z,19.00
2023-05-21T04:33:59.776Z,17.30
2023-05-21T04:36:29.135Z,13.75
2023-05-21T04:38:56.217Z,17.77
2023-05-21T04:41:23.203Z,17.80
2023-05-21T04:43:55.233Z,17.50
2023-05-21T04:46:25.655Z,19.65
2023-05-21T04:48:55.319Z,15.25
2023-05-21T04:51:24.854Z,20.40
2023-05-21T04:53:52.257Z,18.83
2023-05-21T04:56:19.165Z,24.05
2023-05-21T04:58:48.081Z,18.13
2023-05-21T05:01:19.387Z,15.80
2023-05-21T05:03:46.479Z,21.58
2023-05-21T05:06:13.442Z,19.65
2023-05-21T05:08:40.397Z,17.65
2023-05-21T05:11:07.462Z,18.40
2023-05-21T05:13:35.206Z,15.68
2023-05-21T05:16:02.850Z,17.27
2023-05-21T05:18:29.783Z,19.95
2023-05-21T05:20:56.597Z,23.35
2023-05-21T05:23:23.561Z,15.73
2023-05-21T05:25:50.351Z,16.23
2023-05-21T05:28:17.299Z,13.82
2023-05-21T05:30:44.396Z,13.73
2023-05-21T05:33:12.264Z,16.15
2023-05-21T05:35:39.125Z,13.80
2023-05-21T05:38:06.488Z,41.47
2023-05-21T05:40:33.343Z,71.68
2023-05-21T05:43:00.233Z,36.40
2023-05-21T05:45:27.183Z,62.65
2023-05-21T05:47:54.111Z,36.03
2023-05-21T05:50:21.266Z,39.38
2023-05-21T05:52:48.160Z,54.88
2023-05-21T05:55:15.934Z,22.20
2023-05-21T05:57:44.973Z,17.90
2023-05-21T06:00:12.768Z,29.30
2023-05-21T06:02:40.016Z,24.08
2023-05-21T06:05:07.487Z,19.52
2023-05-21T06:07:34.437Z,18.38
2023-05-21T06:10:01.255Z,14.45
2023-05-21T06:12:28.077Z,11.90
2023-05-21T06:14:54.966Z,13.27
2023-05-21T06:17:21.826Z,16.65
2023-05-21T06:19:48.755Z,13.82
2023-05-21T06:22:15.687Z,15.57
2023-05-21T06:24:42.547Z,15.07
2023-05-21T06:27:09.373Z,12.90
2023-05-21T06:29:36.436Z,12.05
2023-05-21T06:32:03.755Z,17.13
2023-05-21T06:34:30.602Z,13.98
2023-05-21T06:36:57.870Z,14.30
2023-05-21T06:39:25.006Z,16.75
2023-05-21T06:41:52.323Z,12.40
2023-05-21T06:44:19.352Z,13.57
2023-05-21T06:46:46.355Z,11.68
2023-05-21T06:49:14.507Z,15.25
2023-05-21T06:51:41.501Z,16.05
2023-05-21T06:54:08.305Z,15.43
2023-05-21T06:56:35.113Z,10.43
2023-05-21T06:59:01.946Z,10.80
2023-05-21T07:01:29.339Z,9.85
2023-05-21T07:06:38.181Z,10.75
2023-05-21T07:09:09.191Z,17.50
2023-05-21T07:11:36.185Z,13.38
2023-05-21T07:14:04.194Z,8.93
2023-05-21T07:16:31.061Z,12.50
2023-05-21T07:18:57.943Z,15.98
2023-05-21T07:21:29.528Z,10.50
2023-05-21T07:23:56.857Z,13.68
2023-05-21T07:26:23.770Z,10.10
2023-05-21T07:28:50.877Z,13.52
2023-05-21T07:31:17.820Z,11.10
2023-05-21T07:33:44.673Z,11.18
2023-05-21T07:36:11.631Z,14.65
2023-05-21T07:38:40.305Z,10.57
2023-05-21T07:41:07.208Z,14.23
2023-05-21T07:43:34.073Z,13.20
2023-05-21T07:46:01.120Z,10.23
2023-05-21T07:48:28.129Z,7.65
2023-05-21T07:50:56.737Z,12.73
2023-05-21T07:53:23.609Z,13.32
2023-05-21T07:55:50.608Z,12.05
2023-05-21T07:58:18.911Z,10.77
2023-05-21T08:00:51.156Z,12.40
2023-05-21T08:03:18.814Z,9.70
2023-05-21T08:05:49.251Z,10.95
2023-05-21T08:08:17.713Z,12.13
2023-05-21T08:10:45.044Z,9.77
2023-05-21T08:13:12.970Z,10.25
2023-05-21T08:15:40.308Z,7.03
2023-05-21T08:18:07.191Z,16.30
2023-05-21T08:20:34.602Z,12.20
2023-05-21T08:23:01.659Z,14.10
2023-05-21T08:25:28.927Z,13.65
2023-05-21T08:27:56.232Z,14.02
2023-05-21T08:30:23.124Z,10.95
2023-05-21T08:32:50.239Z,8.52
2023-05-21T08:35:17.218Z,7.95
2023-05-21T08:37:44.057Z,11.55
2023-05-21T08:40:12.448Z,11.88
2023-05-21T08:42:47.384Z,8.15
2023-05-21T08:45:20.929Z,11.32
2023-05-21T08:47:48.623Z,9.32
2023-05-21T08:50:19.638Z,8.13
2023-05-21T08:52:46.548Z,13.32
2023-05-21T08:55:14.233Z,13.02
2023-05-21T08:57:44.750Z,12.63
2023-05-21T09:00:12.375Z,8.00
2023-05-21T09:02:44.158Z,8.10
2023-05-21T09:05:12.468Z,13.75
2023-05-21T09:07:55.941Z,11.30
2023-05-21T09:10:26.811Z,9.30
2023-05-21T09:12:53.873Z,10.90
2023-05-21T09:15:21.953Z,8.95
2023-05-21T09:17:49.242Z,11.02
2023-05-21T09:20:16.698Z,9.48
2023-05-21T09:22:50.673Z,13.20
2023-05-21T09:25:21.950Z,8.47
2023-05-21T09:27:49.125Z,12.23
2023-05-21T09:30:18.039Z,9.23
2023-05-21T09:32:46.480Z,9.40
2023-05-21T09:35:16.133Z,12.45
2023-05-21T09:37:45.235Z,10.88
2023-05-21T09:40:13.130Z,11.75
2023-05-21T09:42:41.114Z,9.15
2023-05-21T09:45:09.790Z,10.07
2023-05-21T09:47:46.610Z,13.13
2023-05-21T09:50:36.254Z,9.35
2023-05-21T09:53:03.515Z,11.00
2023-05-21T09:55:30.346Z,11.60
2023-05-21T09:57:58.386Z,9.15
2023-05-21T10:00:28.422Z,9.32
2023-05-21T10:02:57.200Z,25.80
2023-05-21T10:05:28.369Z,13.90
2023-05-21T10:08:03.871Z,10.40
2023-05-21T10:10:32.105Z,9.97
2023-05-21T10:13:09.019Z,11.18
2023-05-21T10:15:42.629Z,9.43
2023-05-21T10:18:10.776Z,11.27
2023-05-21T10:20:38.681Z,9.40
2023-05-21T10:23:06.386Z,8.75
2023-05-21T10:25:33.694Z,11.73
2023-05-21T10:28:01.193Z,8.27
2023-05-21T10:30:28.386Z,8.25
2023-05-21T10:32:57.474Z,9.60
2023-05-21T10:35:24.921Z,10.52
2023-05-21T10:37:53.461Z,9.65
2023-05-21T10:40:20.646Z,12.07
2023-05-21T10:43:09.184Z,14.25
2023-05-21T10:46:14.688Z,17.27
2023-05-21T10:49:11.219Z,12.10
2023-05-21T10:52:19.832Z,12.60
2023-05-21T10:55:05.568Z,15.00
2023-05-21T10:57:40.306Z,15.70
2023-05-21T11:00:09.746Z,17.50
2023-05-21T11:02:37.479Z,10.50
2023-05-21T11:05:04.818Z,13.73
2023-05-21T11:07:57.318Z,13.05
2023-05-21T11:10:39.302Z,17.17
2023-05-21T11:13:22.559Z,14.05
2023-05-21T11:15:58.658Z,10.30
2023-05-21T11:18:38.539Z,12.57
2023-05-21T11:21:06.642Z,13.30
2023-05-21T11:23:52.968Z,11.63
2023-05-21T11:26:49.209Z,23.70
2023-05-21T11:29:16.738Z,10.57
2023-05-21T11:31:48.574Z,15.48
2023-05-21T11:34:29.748Z,12.65
2023-05-21T11:37:15.401Z,16.92
2023-05-21T11:39:42.745Z,14.48
2023-05-21T11:42:09.684Z,16.83
2023-05-21T11:44:41.005Z,16.40
2023-05-21T11:47:19.339Z,20.65
2023-05-21T11:49:47.038Z,13.57
2023-05-21T11:52:15.012Z,15.27
2023-05-21T11:54:48.854Z,10.68
2023-05-21T11:57:17.866Z,12.05
2023-05-21T11:59:54.190Z,9.95
2023-05-21T12:02:22.954Z,11.35
2023-05-21T12:04:51.076Z,13.75
2023-05-21T12:07:20.203Z,16.20
2023-05-21T12:09:49.839Z,20.95
2023-05-21T12:12:24.624Z,14.35
2023-05-21T12:14:53.328Z,19.67
2023-05-21T12:17:22.397Z,17.80
2023-05-21T12:19:52.140Z,18.27
2023-05-21T12:22:19.584Z,16.70
2023-05-21T12:24:47.048Z,16.10
2023-05-21T12:27:17.096Z,14.32
2023-05-21T12:29:50.210Z,16.38
2023-05-21T12:32:17.076Z,22.50
2023-05-21T12:34:54.856Z,12.70
2023-05-21T12:37:31.558Z,12.68
2023-05-21T12:39:59.977Z,12.05
2023-05-21T12:42:31.184Z,11.70
2023-05-21T12:44:58.912Z,14.63
2023-05-21T12:47:27.377Z,17.85
2023-05-21T12:49:58.074Z,13.55
2023-05-21T12:52:25.698Z,21.75
2023-05-21T12:54:54.091Z,19.05
2023-05-21T12:57:25.961Z,16.23
2023-05-21T12:59:57.394Z,13.38
2023-05-21T13:02:40.541Z,10.27
2023-05-21T13:05:16.591Z,13.85
2023-05-21T13:10:16.951Z,14.80
2023-05-21T13:12:45.224Z,17.55
2023-05-21T13:15:12.378Z,10.10
2023-05-21T13:17:39.294Z,12.45
2023-05-21T13:20:09.630Z,16.33
2023-05-21T13:22:48.030Z,9.95
2023-05-21T13:25:21.326Z,10.57
2023-05-21T13:27:52.816Z,11.15
2023-05-21T13:30:20.548Z,14.65
2023-05-21T13:32:48.600Z,13.18
2023-05-21T13:35:16.940Z,11.35
2023-05-21T13:37:44.705Z,24.85
2023-05-21T13:40:15.203Z,13.48
2023-05-21T13:42:46.772Z,16.83
2023-05-21T13:45:16.351Z,17.05
2023-05-21T13:47:44.532Z,16.20
2023-05-21T13:50:11.931Z,11.63
2023-05-21T13:52:39.077Z,19.83
2023-05-21T13:55:06.669Z,15.63
2023-05-21T13:57:33.675Z,12.50
2023-05-21T14:00:01.683Z,11.70
2023-05-21T14:02:28.952Z,12.18
2023-05-21T14:04:56.381Z,11.65
2023-05-21T14:07:23.354Z,8.32
2023-05-21T14:09:50.282Z,20.25
2023-05-21T14:12:17.424Z,11.05
2023-05-21T14:14:44.365Z,11.77
2023-05-21T14:17:11.264Z,10.32
2023-05-21T14:19:38.427Z,17.08
2023-05-21T14:22:06.073Z,15.70
2023-05-21T14:24:33.119Z,9.50
2023-05-21T14:27:00.340Z,10.70
2023-05-21T14:29:27.230Z,10.13
2023-05-21T14:31:54.132Z,12.55
2023-05-21T14:34:21.078Z,9.27
2023-05-21T14:36:47.914Z,8.82
2023-05-21T14:39:14.898Z,9.48
2023-05-21T14:41:41.957Z,6.75
2023-05-21T14:44:08.880Z,10.98
2023-05-21T14:46:36.893Z,14.88
2023-05-21T14:49:04.118Z,14.40
2023-05-21T14:51:31.848Z,11.13
2023-05-21T14:53:58.888Z,10.10
2023-05-21T14:56:27.933Z,11.98
2023-05-21T14:58:55.680Z,8.57
2023-05-21T15:01:23.059Z,7.85
2023-05-21T15:03:50.245Z,8.90
2023-05-21T15:06:17.242Z,8.88
2023-05-21T15:08:44.097Z,11.25
2023-05-21T15:11:11.883Z,10.48
2023-05-21T15:13:38.822Z,11.48
2023-05-21T15:16:06.267Z,10.35
2023-05-21T15:18:33.509Z,13.88
2023-05-21T15:21:00.617Z,16.10
2023-05-21T15:23:27.717Z,9.65
2023-05-21T15:25:54.675Z,10.45
2023-05-21T15:28:23.111Z,12.63
2023-05-21T15:30:50.476Z,6.70
2023-05-21T15:33:17.749Z,10.98
2023-05-21T15:35:44.881Z,10.68
2023-05-21T15:38:12.080Z,13.48
2023-05-21T15:40:41.452Z,10.75
2023-05-21T15:43:08.427Z,12.50
2023-05-21T15:45:35.497Z,18.63
2023-05-21T15:48:02.611Z,13.27
2023-05-21T15:50:29.644Z,11.10
2023-05-21T15:52:56.496Z,14.90
2023-05-21T15:55:23.449Z,10.07
2023-05-21T15:57:50.255Z,9.02
2023-05-21T16:00:17.258Z,11.43
2023-05-21T16:02:44.413Z,9.65
2023-05-21T16:05:11.448Z,8.10
2023-05-21T16:07:38.580Z,10.77
2023-05-21T16:10:06.672Z,11.93
2023-05-21T16:12:33.520Z,11.50
2023-05-21T16:15:00.551Z,8.50
2023-05-21T16:17:27.554Z,13.35
2023-05-21T16:19:54.435Z,12.32
2023-05-21T16:22:22.260Z,10.13
2023-05-21T16:24:49.187Z,26.00
2023-05-21T16:27:16.179Z,20.13
2023-05-21T16:29:43.099Z,13.43
2023-05-21T16:32:10.902Z,19.48
2023-05-21T16:34:37.790Z,19.75
2023-05-21T16:37:05.267Z,9.90
2023-05-21T16:39:32.322Z,11.63
2023-05-21T16:42:00.512Z,17.70
2023-05-21T16:44:27.764Z,10.80
2023-05-21T16:46:54.830Z,11.93
2023-05-21T16:49:21.669Z,8.00
2023-05-21T16:51:48.536Z,8.57
2023-05-21T16:54:15.605Z,9.40
2023-05-21T16:56:42.469Z,6.85
2023-05-21T16:59:09.522Z,8.13
2023-05-21T17:01:36.892Z,6.75
2023-05-21T17:04:04.207Z,6.57
2023-05-21T17:06:31.785Z,12.43
2023-05-21T17:08:58.685Z,6.80
2023-05-21T17:11:25.613Z,8.43
2023-05-21T17:13:52.529Z,7.18
2023-05-21T17:16:19.509Z,7.22
2023-05-21T17:18:46.369Z,7.55
2023-05-21T17:21:13.780Z,4.68
2023-05-21T17:23:43.000Z,9.10
2023-05-21T17:26:11.198Z,8.73
2023-05-21T17:28:38.117Z,10.50
2023-05-21T17:31:05.078Z,8.38
2023-05-21T17:33:32.073Z,9.18
2023-05-21T17:35:58.956Z,9.30
2023-05-21T17:38:25.800Z,7.07
2023-05-21T17:40:52.729Z,7.38
2023-05-21T17:43:19.755Z,9.75
2023-05-21T17:45:46.616Z,6.03
2023-05-21T17:48:13.544Z,9.75
2023-05-21T17:50:40.670Z,7.50
2023-05-21T17:53:08.260Z,9.50
2023-05-21T17:55:35.788Z,7.38
2023-05-21T17:58:02.809Z,11.93
2023-05-21T18:00:29.757Z,8.30
2023-05-21T18:02:56.695Z,9.38
2023-05-21T18:05:24.758Z,7.28
2023-05-21T18:07:51.638Z,8.13
2023-05-21T18:10:19.103Z,8.60
2023-05-21T18:12:46.562Z,10.20
2023-05-21T18:15:14.855Z,10.70
2023-05-21T18:17:41.970Z,7.38
2023-05-21T18:20:09.600Z,9.93
2023-05-21T18:22:36.905Z,16.05
2023-05-21T18:25:05.078Z,10.90
2023-05-21T18:27:31.995Z,7.00
2023-05-21T18:30:02.512Z,8.95
2023-05-21T18:32:29.673Z,8.02
2023-05-21T18:34:58.160Z,9.52
2023-05-21T18:37:26.032Z,9.55
2023-05-21T18:39:52.997Z,10.27
2023-05-21T18:42:19.816Z,7.18
2023-05-21T18:44:46.813Z,10.25
2023-05-21T18:47:14.012Z,7.43
2023-05-21T18:49:40.832Z,10.43
2023-05-21T18:52:08.271Z,11.70
2023-05-21T18:54:35.221Z,8.25
2023-05-21T18:57:02.061Z,10.55
2023-05-21T18:59:29.836Z,10.50
2023-05-21T19:01:57.195Z,18.88
2023-05-21T19:04:24.037Z,8.55
2023-05-21T19:06:51.070Z,11.38
2023-05-21T19:09:17.975Z,13.85
2023-05-21T19:11:45.945Z,9.35
2023-05-21T19:14:13.819Z,9.63
2023-05-21T19:16:40.850Z,8.70
2023-05-21T19:19:09.027Z,9.38
2023-05-21T19:21:36.207Z,10.20
2023-05-21T19:24:05.544Z,15.25
2023-05-21T19:26:33.026Z,14.65
2023-05-21T19:28:59.927Z,12.77
2023-05-21T19:31:26.913Z,10.80
2023-05-21T19:33:54.183Z,8.00
2023-05-21T19:36:21.709Z,11.02
2023-05-21T19:38:49.728Z,12.45
2023-05-21T19:41:22.094Z,10.32
2023-05-21T19:43:49.069Z,10.32
2023-05-21T19:46:19.820Z,9.45
2023-05-21T19:48:47.467Z,9.63
2023-05-21T19:51:14.400Z,10.55
2023-05-21T19:53:41.252Z,13.13
2023-05-21T19:56:08.140Z,10.13
2023-05-21T19:58:35.077Z,11.35
2023-05-21T20:01:03.682Z,11.93
2023-05-21T20:03:35.974Z,15.40
2023-05-21T20:06:03.486Z,17.73
2023-05-21T20:08:30.613Z,21.52
2023-05-21T20:10:57.492Z,10.98
2023-05-21T20:13:24.593Z,16.25
2023-05-21T20:15:51.657Z,11.18
2023-05-21T20:18:20.258Z,14.45
2023-05-21T20:20:47.483Z,20.27
2023-05-21T20:23:14.418Z,17.88
2023-05-21T20:25:41.242Z,15.98
2023-05-21T20:28:08.799Z,21.05
2023-05-21T20:30:53.118Z,14.77
2023-05-21T20:33:21.704Z,16.13
2023-05-21T20:35:48.617Z,15.75
2023-05-21T20:38:16.105Z,16.63
2023-05-21T20:40:44.384Z,11.93
2023-05-21T20:43:15.328Z,10.25
2023-05-21T20:45:43.682Z,10.55
2023-05-21T20:48:12.186Z,11.55
2023-05-21T20:50:40.981Z,15.90
2023-05-21T20:53:08.593Z,12.93
2023-05-21T20:55:35.492Z,10.45
2023-05-21T20:58:03.723Z,11.60
2023-05-21T21:00:33.466Z,11.25
2023-05-21T21:03:01.444Z,10.10
2023-05-21T21:05:28.660Z,9.05
2023-05-21T21:07:56.036Z,11.10
2023-05-21T21:10:23.215Z,11.38
2023-05-21T21:12:50.126Z,12.05
2023-05-21T21:15:17.129Z,16.48
2023-05-21T21:17:44.183Z,10.35
2023-05-21T21:20:12.969Z,12.82
2023-05-21T21:22:40.094Z,12.93
2023-05-21T21:25:07.478Z,12.50
2023-05-21T21:27:34.892Z,13.85
2023-05-21T21:30:01.823Z,13.82
2023-05-21T21:32:28.903Z,12.52
2023-05-21T21:34:55.772Z,12.23
2023-05-21T21:37:22.630Z,12.93
2023-05-21T21:39:49.656Z,18.30
2023-05-21T21:42:16.682Z,9.40
2023-05-21T21:44:43.650Z,11.50
2023-05-21T21:47:10.898Z,12.30
2023-05-21T21:49:37.774Z,9.00
2023-05-21T21:52:04.929Z,9.52
2023-05-21T21:54:32.010Z,14.60
2023-05-21T21:57:01.634Z,9.80
2023-05-21T21:59:28.525Z,10.70
2023-05-21T22:01:55.957Z,11.50
2023-05-21T22:04:22.893Z,16.42
2023-05-21T22:06:50.163Z,12.25
2023-05-21T22:09:17.744Z,13.32
2023-05-21T22:11:44.632Z,10.63
2023-05-21T22:14:12.001Z,10.95
2023-05-21T22:16:39.097Z,10.32
2023-05-21T22:19:06.044Z,11.88
2023-05-21T22:21:33.230Z,10.57
2023-05-21T22:24:00.310Z,9.50
2023-05-21T22:26:27.145Z,10.88
2023-05-21T22:28:53.961Z,13.85
2023-05-21T22:31:21.204Z,11.82
2023-05-21T22:33:48.067Z,11.38
2023-05-21T22:36:14.903Z,6.72
2023-05-21T22:38:43.706Z,11.70
2023-05-21T22:41:11.245Z,11.23
2023-05-21T22:43:38.286Z,10.30
2023-05-21T22:46:05.505Z,9.40
2023-05-21T22:48:32.470Z,11.20
2023-05-21T22:51:01.970Z,10.82
2023-05-21T22:53:29.029Z,11.52
2023-05-21T22:55:56.032Z,11.52
2023-05-21T22:58:22.931Z,8.07
2023-05-21T23:00:50.018Z,10.43
2023-05-21T23:03:17.593Z,10.68
2023-05-21T23:05:44.813Z,8.75
2023-05-21T23:08:12.295Z,11.32
2023-05-21T23:10:39.404Z,12.13
2023-05-21T23:13:06.453Z,13.77
2023-05-21T23:15:34.095Z,11.70
2023-05-21T23:18:02.476Z,12.43
2023-05-21T23:20:29.898Z,14.43
2023-05-21T23:22:56.792Z,9.82
2023-05-21T23:25:23.714Z,11.15
2023-05-21T23:27:50.650Z,14.80
2023-05-21T23:34:33.303Z,14.70
2023-05-21T23:37:00.786Z,11.48
2023-05-21T23:39:28.850Z,11.27
2023-05-21T23:41:56.063Z,14.40
2023-05-21T23:44:22.913Z,8.68
2023-05-21T23:46:50.212Z,9.07
2023-05-21T23:49:17.470Z,14.15
2023-05-21T23:51:44.388Z,10.77
2023-05-21T23:54:11.305Z,11.55
2023-05-21T23:56:38.356Z,11.48
2023-05-21T23:59:05.814Z,13.90
